createdAt,value
2019-02-16T00:01:54.079Z,55.81
2019-02-16T00:04:25.231Z,56.43
2019-02-16T00:06:56.334Z,56.21
2019-02-16T00:09:27.740Z,54.61
2019-02-16T00:11:58.952Z,53.72
2019-02-16T00:14:30.003Z,52.96
2019-02-16T00:17:01.620Z,53.78
2019-02-16T00:19:32.784Z,53.41
2019-02-16T00:22:03.855Z,52.02
2019-02-16T00:24:35.150Z,52.92
2019-02-16T00:27:05.968Z,51.65
2019-02-16T00:29:37.083Z,53.04
2019-02-16T00:32:08.837Z,52.32
2019-02-16T00:34:39.891Z,53.64
2019-02-16T00:37:10.921Z,54.68
2019-02-16T00:39:41.864Z,55.47
2019-02-16T00:42:12.922Z,56.46
2019-02-16T00:44:44.342Z,57.82
2019-02-16T00:47:15.403Z,57.32
2019-02-16T00:49:46.230Z,58.25
2019-02-16T00:52:17.314Z,58.64
2019-02-16T00:54:48.195Z,58.86
2019-02-16T00:57:19.262Z,58.67
2019-02-16T00:59:50.331Z,59.20
2019-02-16T01:02:21.249Z,58.83
2019-02-16T01:04:52.068Z,58.40
2019-02-16T01:07:22.951Z,59.48
2019-02-16T01:09:54.054Z,58.43
2019-02-16T01:12:24.888Z,59.54
2019-02-16T01:14:57.250Z,58.77
2019-02-16T01:17:28.113Z,58.40
2019-02-16T01:19:59.202Z,59.87
2019-02-16T01:22:30.455Z,59.43
2019-02-16T01:25:01.846Z,59.99
2019-02-16T01:27:32.984Z,59.28
2019-02-16T01:30:05.359Z,59.17
2019-02-16T01:32:36.137Z,59.74
2019-02-16T01:35:07.617Z,58.63
2019-02-16T01:37:38.409Z,58.21
2019-02-16T01:40:10.588Z,57.65
2019-02-16T01:42:41.836Z,56.92
2019-02-16T01:45:12.721Z,56.60
2019-02-16T01:47:43.884Z,55.99
2019-02-16T01:50:15.267Z,55.37
2019-02-16T01:52:46.656Z,57.31
2019-02-16T01:55:17.543Z,58.57
2019-02-16T01:57:48.508Z,58.85
2019-02-16T02:00:19.307Z,60.42
2019-02-16T02:02:51.095Z,59.68
2019-02-16T02:05:22.099Z,59.27
2019-02-16T02:07:53.257Z,60.13
2019-02-16T02:10:24.162Z,60.71
2019-02-16T02:12:54.988Z,61.20
2019-02-16T02:15:26.096Z,61.55
2019-02-16T02:17:56.944Z,61.70
2019-02-16T02:20:27.840Z,61.84
2019-02-16T02:22:58.982Z,61.50
2019-02-16T02:25:30.065Z,60.28
2019-02-16T02:28:01.639Z,58.29
2019-02-16T02:30:33.005Z,57.36
2019-02-16T02:33:04.310Z,56.78
2019-02-16T02:35:35.927Z,57.81
2019-02-16T02:38:07.401Z,58.92
2019-02-16T02:40:38.470Z,59.44
2019-02-16T02:43:09.835Z,60.05
2019-02-16T02:45:40.947Z,60.87
2019-02-16T02:48:13.549Z,61.00
2019-02-16T02:50:44.393Z,60.60
2019-02-16T02:53:15.253Z,59.71
2019-02-16T02:55:46.182Z,59.20
2019-02-16T02:58:29.156Z,58.74
2019-02-16T03:01:00.175Z,57.51
2019-02-16T03:03:32.055Z,56.95
2019-02-16T03:06:03.285Z,57.37
2019-02-16T03:08:34.405Z,57.04
2019-02-16T03:11:05.553Z,56.94
2019-02-16T03:13:36.611Z,57.17
2019-02-16T03:16:08.390Z,58.14
2019-02-16T03:18:39.252Z,59.62
2019-02-16T03:21:10.819Z,59.53
2019-02-16T03:23:41.696Z,59.83
2019-02-16T03:26:50.223Z,60.52
2019-02-16T03:29:46.110Z,61.09
2019-02-16T03:32:43.269Z,60.90
2019-02-16T03:36:05.150Z,60.39
2019-02-16T03:38:54.788Z,61.44
2019-02-16T03:41:26.123Z,61.81
2019-02-16T03:43:57.181Z,61.58
2019-02-16T03:46:28.026Z,61.53
2019-02-16T03:48:58.846Z,62.43
2019-02-16T03:51:29.674Z,62.34
2019-02-16T03:54:00.747Z,62.82
2019-02-16T03:56:32.180Z,62.71
2019-02-16T03:59:03.047Z,61.98
2019-02-16T04:01:34.091Z,61.09
2019-02-16T04:04:04.908Z,61.56
2019-02-16T04:06:36.109Z,61.89
2019-02-16T04:09:07.027Z,62.15
2019-02-16T04:11:38.147Z,62.71
2019-02-16T04:14:08.955Z,63.30
2019-02-16T04:16:40.086Z,62.63
2019-02-16T04:19:10.913Z,62.60
2019-02-16T04:21:42.174Z,62.50
2019-02-16T04:24:12.993Z,62.18
2019-02-16T04:26:43.832Z,62.23
2019-02-16T04:29:19.223Z,62.23
2019-02-16T04:31:50.351Z,62.55
2019-02-16T04:34:21.403Z,62.90
2019-02-16T04:36:52.515Z,62.36
2019-02-16T04:39:25.842Z,61.84
2019-02-16T04:41:57.359Z,62.56
2019-02-16T04:44:28.863Z,61.96
2019-02-16T04:46:59.925Z,62.22
2019-02-16T04:49:30.734Z,61.24
2019-02-16T04:52:02.281Z,61.69
2019-02-16T04:54:33.116Z,61.80
2019-02-16T04:57:03.939Z,61.12
2019-02-16T04:59:34.773Z,61.45
2019-02-16T05:02:06.118Z,61.92
2019-02-16T05:04:37.239Z,61.39
2019-02-16T05:07:08.283Z,61.52
2019-02-16T05:09:39.449Z,61.05
2019-02-16T05:12:11.600Z,61.16
2019-02-16T05:14:42.394Z,60.57
2019-02-16T05:17:13.545Z,59.98
2019-02-16T05:19:44.342Z,60.26
2019-02-16T05:22:15.291Z,61.07
2019-02-16T05:24:46.359Z,60.83
2019-02-16T05:27:17.436Z,61.38
2019-02-16T05:29:48.261Z,60.27
2019-02-16T05:32:19.068Z,60.28
2019-02-16T05:34:49.854Z,59.86
2019-02-16T05:37:20.663Z,58.95
2019-02-16T05:39:51.896Z,59.86
2019-02-16T05:42:23.192Z,60.92
2019-02-16T05:44:54.711Z,61.34
2019-02-16T05:47:25.757Z,61.93
2019-02-16T05:49:56.563Z,61.46
2019-02-16T05:52:27.613Z,62.15
2019-02-16T05:54:58.685Z,62.05
2019-02-16T05:57:29.591Z,60.70
2019-02-16T06:00:00.620Z,64.06
2019-02-16T06:02:32.507Z,59.59
2019-02-16T06:05:03.352Z,61.93
2019-02-16T06:07:34.183Z,60.01
2019-02-16T06:10:05.237Z,61.39
2019-02-16T06:12:36.156Z,58.31
2019-02-16T06:15:07.991Z,55.76
2019-02-16T06:17:38.796Z,54.02
2019-02-16T06:20:10.085Z,58.87
2019-02-16T06:22:40.901Z,51.83
2019-02-16T06:25:12.019Z,54.36
2019-02-16T06:27:43.398Z,51.08
2019-02-16T06:30:14.373Z,51.55
2019-02-16T06:32:45.202Z,50.49
2019-02-16T06:35:29.936Z,48.33
2019-02-16T06:38:01.123Z,48.26
2019-02-16T06:40:32.316Z,49.89
2019-02-16T06:43:03.466Z,53.44
2019-02-16T06:45:34.296Z,57.19
2019-02-16T06:48:05.671Z,55.26
2019-02-16T06:50:37.415Z,55.54
2019-02-16T06:53:13.250Z,54.77
2019-02-16T06:55:48.182Z,55.78
2019-02-16T06:58:18.984Z,58.87
2019-02-16T07:00:49.804Z,56.72
2019-02-16T07:03:20.711Z,53.25
2019-02-16T07:05:51.588Z,47.53
2019-02-16T07:08:22.681Z,49.08
2019-02-16T07:10:54.493Z,49.21
2019-02-16T07:13:25.796Z,49.59
2019-02-16T07:16:15.124Z,48.08
2019-02-16T07:18:59.990Z,48.34
2019-02-16T07:21:30.841Z,49.74
2019-02-16T07:24:03.999Z,47.83
2019-02-16T07:26:35.453Z,49.40
2019-02-16T07:29:06.401Z,51.27
2019-02-16T07:31:37.629Z,48.97
2019-02-16T07:34:09.087Z,50.55
2019-02-16T07:36:40.007Z,49.06
2019-02-16T07:39:11.174Z,47.24
2019-02-16T07:41:42.107Z,46.97
2019-02-16T07:44:30.642Z,47.35
2019-02-16T07:47:20.137Z,44.03
2019-02-16T07:50:01.081Z,44.50
2019-02-16T07:52:51.894Z,43.95
2019-02-16T07:55:28.892Z,47.05
2019-02-16T07:58:06.271Z,43.07
2019-02-16T08:01:08.348Z,42.22
2019-02-16T08:03:50.394Z,42.02
2019-02-16T08:06:30.772Z,47.40
2019-02-16T08:09:09.692Z,42.28
2019-02-16T08:11:49.246Z,47.52
2019-02-16T08:14:26.420Z,42.33
2019-02-16T08:17:08.234Z,40.76
2019-02-16T08:19:58.342Z,40.26
2019-02-16T08:22:44.654Z,41.33
2019-02-16T08:25:33.216Z,41.56
2019-02-16T08:28:15.367Z,41.38
2019-02-16T08:31:07.123Z,38.97
2019-02-16T08:34:03.235Z,38.88
2019-02-16T08:37:05.277Z,38.08
2019-02-16T08:39:46.340Z,37.79
2019-02-16T08:42:26.854Z,37.70
2019-02-16T08:45:07.580Z,37.78
2019-02-16T08:47:57.438Z,37.37
2019-02-16T08:50:44.991Z,37.26
2019-02-16T08:53:26.398Z,38.45
2019-02-16T08:56:19.162Z,38.79
2019-02-16T08:59:04.652Z,36.10
2019-02-16T09:02:06.686Z,37.98
2019-02-16T09:05:02.224Z,36.07
2019-02-16T09:08:07.960Z,36.03
2019-02-16T09:10:56.362Z,35.92
2019-02-16T09:13:33.761Z,35.61
2019-02-16T09:16:12.241Z,35.56
2019-02-16T09:18:54.473Z,35.75
2019-02-16T09:21:31.797Z,35.66
2019-02-16T09:24:24.910Z,37.27
2019-02-16T09:27:19.762Z,35.43
2019-02-16T09:30:13.004Z,34.90
2019-02-16T09:32:55.618Z,35.11
2019-02-16T09:35:38.801Z,34.59
2019-02-16T09:38:25.566Z,34.42
2019-02-16T09:41:21.498Z,34.31
2019-02-16T09:44:03.678Z,34.32
2019-02-16T09:46:50.971Z,34.65
2019-02-16T09:49:42.548Z,34.39
2019-02-16T09:52:33.343Z,33.68
2019-02-16T09:55:10.298Z,34.07
2019-02-16T09:58:00.300Z,33.96
2019-02-16T10:00:53.314Z,33.25
2019-02-16T10:03:43.208Z,33.26
2019-02-16T10:06:24.694Z,33.30
2019-02-16T10:09:08.677Z,33.44
2019-02-16T10:11:43.729Z,33.42
2019-02-16T10:14:20.172Z,33.37
2019-02-16T10:17:09.866Z,32.68
2019-02-16T10:20:11.426Z,32.06
2019-02-16T10:22:51.571Z,32.21
2019-02-16T10:25:51.194Z,32.11
2019-02-16T10:28:45.031Z,32.24
2019-02-16T10:31:30.227Z,32.00
2019-02-16T10:34:19.240Z,32.10
2019-02-16T10:37:04.158Z,31.80
2019-02-16T10:39:49.003Z,31.82
2019-02-16T10:42:41.955Z,32.20
2019-02-16T10:45:37.178Z,32.40
2019-02-16T10:48:23.156Z,31.78
2019-02-16T10:50:59.486Z,32.08
2019-02-16T10:53:35.487Z,32.06
2019-02-16T10:56:18.811Z,31.63
2019-02-16T10:59:11.736Z,31.75
2019-02-16T11:02:17.085Z,31.58
2019-02-16T11:05:06.926Z,31.48
2019-02-16T11:07:58.667Z,31.71
2019-02-16T11:10:49.005Z,31.39
2019-02-16T11:13:40.641Z,31.71
2019-02-16T11:16:44.044Z,31.62
2019-02-16T11:19:35.191Z,31.44
2019-02-16T11:22:17.225Z,31.44
2019-02-16T11:25:17.967Z,31.25
2019-02-16T11:28:04.596Z,31.05
2019-02-16T11:30:40.234Z,31.29
2019-02-16T11:33:18.025Z,30.67
2019-02-16T11:36:03.746Z,31.16
2019-02-16T11:38:46.682Z,31.09
2019-02-16T11:41:28.730Z,30.91
2019-02-16T11:44:06.528Z,30.63
2019-02-16T11:47:10.135Z,30.89
2019-02-16T11:49:56.020Z,30.88
2019-02-16T11:52:50.761Z,30.77
2019-02-16T11:55:30.868Z,30.83
2019-02-16T11:58:31.640Z,30.67
2019-02-16T12:01:15.038Z,31.50
2019-02-16T12:04:09.599Z,31.53
2019-02-16T12:06:57.179Z,31.40
2019-02-16T12:09:52.684Z,31.29
2019-02-16T12:12:41.977Z,31.27
2019-02-16T12:15:33.669Z,31.85
2019-02-16T12:18:34.416Z,31.35
2019-02-16T12:21:21.724Z,31.44
2019-02-16T12:23:59.414Z,31.22
2019-02-16T12:26:47.160Z,31.32
2019-02-16T12:29:43.930Z,31.85
2019-02-16T12:32:32.963Z,31.62
2019-02-16T12:35:20.803Z,31.59
2019-02-16T12:38:05.582Z,31.57
2019-02-16T12:40:55.196Z,31.78
2019-02-16T12:43:43.195Z,30.64
2019-02-16T12:46:21.737Z,30.96
2019-02-16T12:49:08.612Z,31.33
2019-02-16T12:51:50.289Z,31.58
2019-02-16T12:54:38.125Z,31.67
2019-02-16T12:57:13.616Z,31.94
2019-02-16T13:00:01.611Z,32.09
2019-02-16T13:02:49.046Z,31.12
2019-02-16T13:05:40.395Z,31.26
2019-02-16T13:08:21.787Z,31.34
2019-02-16T13:11:09.766Z,31.18
2019-02-16T13:13:47.458Z,30.84
2019-02-16T13:16:36.192Z,31.21
2019-02-16T13:19:31.238Z,31.32
2019-02-16T13:22:11.867Z,31.42
2019-02-16T13:24:59.155Z,31.22
2019-02-16T13:27:46.539Z,31.33
2019-02-16T13:30:34.270Z,31.15
2019-02-16T13:33:21.467Z,31.59
2019-02-16T13:35:58.454Z,31.40
2019-02-16T13:38:35.200Z,31.19
2019-02-16T13:41:20.572Z,31.31
2019-02-16T13:44:18.293Z,31.75
2019-02-16T13:47:03.221Z,32.26
2019-02-16T13:49:54.707Z,32.38
2019-02-16T13:52:31.616Z,31.85
2019-02-16T13:55:19.000Z,32.16
2019-02-16T13:58:10.795Z,32.10
2019-02-16T14:01:06.368Z,32.37
2019-02-16T14:04:04.296Z,32.34
2019-02-16T14:06:40.416Z,32.28
2019-02-16T14:09:25.851Z,32.35
2019-02-16T14:12:17.487Z,32.97
2019-02-16T14:14:54.403Z,32.73
2019-02-16T14:17:33.414Z,32.83
2019-02-16T14:20:03.166Z,32.96
2019-02-16T14:22:38.314Z,33.13
2019-02-16T14:25:12.735Z,33.12
2019-02-16T14:27:42.381Z,33.13
2019-02-16T14:30:12.365Z,33.13
2019-02-16T14:32:42.406Z,33.12
2019-02-16T14:35:12.299Z,33.06
2019-02-16T14:37:51.061Z,33.16
2019-02-16T14:40:21.097Z,33.29
2019-02-16T14:42:51.196Z,33.53
2019-02-16T14:45:20.999Z,33.89
2019-02-16T14:47:50.605Z,33.50
2019-02-16T14:50:21.135Z,33.38
2019-02-16T14:52:50.755Z,33.28
2019-02-16T14:55:20.773Z,33.02
2019-02-16T14:57:51.054Z,33.13
2019-02-16T15:00:20.990Z,33.35
2019-02-16T15:02:50.983Z,33.68
2019-02-16T15:05:20.646Z,33.84
2019-02-16T15:07:50.880Z,33.89
2019-02-16T15:10:21.754Z,34.19
2019-02-16T15:12:51.808Z,34.04
2019-02-16T15:15:21.425Z,34.17
2019-02-16T15:17:51.334Z,34.29
2019-02-16T15:20:20.966Z,34.43
2019-02-16T15:22:50.624Z,34.77
2019-02-16T15:25:20.478Z,35.08
2019-02-16T15:27:51.438Z,35.05
2019-02-16T15:30:21.534Z,35.45
2019-02-16T15:32:51.266Z,35.20
2019-02-16T15:35:21.375Z,35.63
2019-02-16T15:37:51.347Z,35.80
2019-02-16T15:40:21.551Z,35.04
2019-02-16T15:42:51.249Z,35.04
2019-02-16T15:45:21.380Z,35.97
2019-02-16T15:47:52.049Z,35.59
2019-02-16T15:50:22.193Z,35.92
2019-02-16T15:52:52.484Z,35.95
2019-02-16T15:55:22.885Z,36.58
2019-02-16T15:57:52.601Z,36.37
2019-02-16T16:00:27.068Z,36.25
2019-02-16T16:02:56.752Z,36.16
2019-02-16T16:05:26.423Z,36.28
2019-02-16T16:08:15.389Z,37.25
2019-02-16T16:11:00.006Z,36.95
2019-02-16T16:13:41.521Z,36.99
2019-02-16T16:16:21.648Z,37.38
2019-02-16T16:19:08.261Z,37.39
2019-02-16T16:21:46.037Z,36.98
2019-02-16T16:24:36.906Z,37.47
2019-02-16T16:27:25.577Z,37.65
2019-02-16T16:30:03.913Z,37.75
2019-02-16T16:32:46.106Z,37.87
2019-02-16T16:35:22.962Z,37.62
2019-02-16T16:38:02.353Z,37.68
2019-02-16T16:40:52.691Z,37.85
2019-02-16T16:43:36.085Z,38.08
2019-02-16T16:46:22.472Z,37.86
2019-02-16T16:49:16.511Z,37.93
2019-02-16T16:52:17.637Z,37.88
2019-02-16T16:55:01.020Z,38.10
2019-02-16T16:57:52.469Z,40.10
2019-02-16T17:00:40.925Z,39.64
2019-02-16T17:03:32.554Z,39.15
2019-02-16T17:06:08.241Z,38.90
2019-02-16T17:09:03.018Z,38.95
2019-02-16T17:11:55.131Z,39.52
2019-02-16T17:14:52.999Z,39.17
2019-02-16T17:17:38.391Z,40.46
2019-02-16T17:20:27.317Z,40.25
2019-02-16T17:23:14.089Z,39.89
2019-02-16T17:26:01.447Z,39.85
2019-02-16T17:28:50.196Z,39.63
2019-02-16T17:31:29.203Z,40.12
2019-02-16T17:34:15.220Z,40.21
2019-02-16T17:37:03.871Z,40.09
2019-02-16T17:39:58.651Z,40.03
2019-02-16T17:42:35.795Z,40.10
2019-02-16T17:45:23.064Z,39.76
2019-02-16T17:48:14.537Z,39.94
2019-02-16T17:51:09.340Z,39.79
2019-02-16T17:53:54.300Z,40.21
2019-02-16T17:56:33.066Z,40.97
2019-02-16T17:59:10.612Z,41.81
2019-02-16T18:01:58.126Z,40.74
2019-02-16T18:04:41.096Z,40.87
2019-02-16T18:07:23.781Z,41.04
2019-02-16T18:10:01.847Z,41.17
2019-02-16T18:12:48.847Z,40.90
2019-02-16T18:15:36.550Z,41.34
2019-02-16T18:18:26.415Z,41.33
2019-02-16T18:21:02.508Z,41.42
2019-02-16T18:23:39.900Z,41.11
2019-02-16T18:26:28.451Z,41.30
2019-02-16T18:29:15.894Z,41.29
2019-02-16T18:32:15.717Z,41.50
2019-02-16T18:35:05.270Z,41.23
2019-02-16T18:38:00.507Z,41.04
2019-02-16T18:41:08.687Z,41.12
2019-02-16T18:43:53.424Z,40.93
2019-02-16T18:46:41.692Z,41.07
2019-02-16T18:49:34.177Z,41.29
2019-02-16T18:52:16.482Z,41.05
2019-02-16T18:55:10.314Z,41.17
2019-02-16T18:57:39.944Z,41.39
2019-02-16T19:00:17.985Z,41.45
2019-02-16T19:03:06.827Z,41.77
2019-02-16T19:05:47.049Z,41.86
2019-02-16T19:08:41.987Z,42.15
2019-02-16T19:11:28.674Z,42.03
2019-02-16T19:14:26.502Z,42.22
2019-02-16T19:17:13.367Z,42.46
2019-02-16T19:20:10.627Z,42.23
2019-02-16T19:22:58.997Z,42.17
2019-02-16T19:25:59.913Z,42.20
2019-02-16T19:28:48.574Z,42.22
2019-02-16T19:31:27.591Z,42.37
2019-02-16T19:34:35.022Z,42.62
2019-02-16T19:37:29.744Z,42.70
2019-02-16T19:40:09.701Z,42.52
2019-02-16T19:43:03.223Z,42.40
2019-02-16T19:45:51.111Z,42.41
2019-02-16T19:48:31.289Z,42.32
2019-02-16T19:51:08.237Z,42.57
2019-02-16T19:53:45.331Z,42.66
2019-02-16T19:56:22.323Z,43.26
2019-02-16T19:59:02.621Z,43.13
2019-02-16T20:02:09.702Z,43.17
2019-02-16T20:04:56.900Z,43.10
2019-02-16T20:07:42.846Z,43.10
2019-02-16T20:10:26.534Z,43.70
2019-02-16T20:13:16.270Z,43.82
2019-02-16T20:15:50.557Z,44.85
2019-02-16T20:18:39.898Z,44.41
2019-02-16T20:21:27.390Z,44.62
2019-02-16T20:24:23.097Z,44.39
2019-02-16T20:27:00.389Z,44.63
2019-02-16T20:29:38.499Z,44.81
2019-02-16T20:32:40.431Z,44.93
2019-02-16T20:35:24.208Z,45.15
2019-02-16T20:38:15.938Z,46.00
2019-02-16T20:40:59.628Z,45.75
2019-02-16T20:43:48.590Z,45.53
2019-02-16T20:46:25.272Z,45.86
2019-02-16T20:49:19.762Z,45.55
2019-02-16T20:51:56.575Z,46.79
2019-02-16T20:54:52.207Z,46.26
2019-02-16T20:57:48.096Z,46.45
2019-02-16T21:00:26.294Z,46.22
2019-02-16T21:03:14.084Z,46.18
2019-02-16T21:05:59.422Z,46.56
2019-02-16T21:08:37.763Z,46.36
2019-02-16T21:11:25.058Z,46.75
2019-02-16T21:14:07.309Z,46.61
2019-02-16T21:16:57.812Z,46.73
2019-02-16T21:19:45.455Z,46.42
2019-02-16T21:22:39.920Z,46.61
2019-02-16T21:25:27.676Z,46.73
2019-02-16T21:28:32.256Z,47.59
2019-02-16T21:31:19.696Z,47.15
2019-02-16T21:34:01.589Z,47.17
2019-02-16T21:36:39.405Z,46.91
2019-02-16T21:39:28.451Z,47.27
2019-02-16T21:42:10.682Z,47.58
2019-02-16T21:45:04.858Z,47.06
2019-02-16T21:47:42.668Z,46.96
2019-02-16T21:50:30.164Z,47.27
2019-02-16T21:53:21.453Z,47.67
2019-02-16T21:56:07.941Z,47.37
2019-02-16T21:59:03.475Z,47.51
2019-02-16T22:01:52.317Z,47.54
2019-02-16T22:04:50.216Z,47.65
2019-02-16T22:07:42.206Z,48.17
2019-02-16T22:10:36.759Z,48.10
2019-02-16T22:13:05.546Z,47.79
2019-02-16T22:15:35.641Z,47.85
2019-02-16T22:18:05.457Z,47.84
2019-02-16T22:20:35.340Z,47.75
2019-02-16T22:23:05.365Z,48.37
2019-02-16T22:25:35.267Z,48.19
2019-02-16T22:28:04.877Z,48.73
2019-02-16T22:30:34.574Z,48.76
2019-02-16T22:33:04.626Z,48.48
2019-02-16T22:35:35.148Z,49.00
2019-02-16T22:38:05.376Z,49.08
2019-02-16T22:40:35.418Z,49.67
2019-02-16T22:43:05.080Z,49.27
2019-02-16T22:45:34.857Z,49.47
2019-02-16T22:48:04.488Z,49.50
2019-02-16T22:50:34.282Z,49.54
2019-02-16T22:53:03.920Z,49.75
2019-02-16T22:55:33.601Z,50.78
2019-02-16T22:58:05.652Z,50.55
2019-02-16T23:00:37.411Z,50.32
2019-02-16T23:03:08.744Z,50.60
2019-02-16T23:05:38.642Z,50.02
2019-02-16T23:08:08.645Z,50.51
2019-02-16T23:10:38.271Z,51.04
2019-02-16T23:13:08.547Z,50.38
2019-02-16T23:15:38.181Z,50.78
2019-02-16T23:18:07.900Z,50.66
2019-02-16T23:20:37.576Z,50.46
2019-02-16T23:23:07.263Z,50.75
2019-02-16T23:25:36.959Z,50.90
2019-02-16T23:28:06.669Z,50.53
2019-02-16T23:30:37.135Z,51.74
2019-02-16T23:33:07.043Z,51.22
2019-02-16T23:35:36.798Z,51.07
2019-02-16T23:38:06.558Z,51.07
2019-02-16T23:40:36.161Z,51.35
2019-02-16T23:43:05.807Z,51.77
2019-02-16T23:45:35.661Z,52.10
2019-02-16T23:48:05.522Z,51.63
2019-02-16T23:50:35.243Z,51.41
2019-02-16T23:53:05.054Z,51.28
2019-02-16T23:55:34.955Z,51.67
2019-02-16T23:58:04.557Z,51.88
